createdAt,value
2023-01-23T14:22:44.705Z,8.88
2023-01-23T14:25:17.815Z,5.85
2023-01-23T14:27:54.356Z,6.25
2023-01-23T14:30:29.285Z,10.10
2023-01-23T14:32:58.402Z,8.40
2023-01-23T14:35:29.900Z,9.63
2023-01-23T14:38:00.670Z,11.95
2023-01-23T14:40:35.148Z,8.73
2023-01-23T14:43:08.912Z,31.13
2023-01-23T14:45:37.541Z,11.68
2023-01-23T14:48:07.976Z,11.65
2023-01-23T14:50:36.297Z,13.15
2023-01-23T14:53:06.372Z,11.15
2023-01-23T14:55:37.495Z,13.93
2023-01-23T14:58:05.448Z,12.70
2023-01-23T15:00:34.395Z,11.80
2023-01-23T15:03:04.446Z,9.27
2023-01-23T15:05:33.018Z,8.75
2023-01-23T15:08:17.168Z,12.55
2023-01-23T15:10:49.176Z,8.88
2023-01-23T15:13:34.412Z,10.05
2023-01-23T15:16:04.193Z,11.80
2023-01-23T15:18:35.549Z,11.52
2023-01-23T15:21:08.483Z,11.57
2023-01-23T15:23:40.526Z,10.77
2023-01-23T15:26:15.229Z,10.10
2023-01-23T15:28:49.037Z,11.38
2023-01-23T15:33:59.514Z,12.82
2023-01-23T15:36:31.728Z,13.43
2023-01-23T15:38:59.893Z,15.05
2023-01-23T15:41:45.072Z,14.88
2023-01-23T15:44:18.002Z,15.05
2023-01-23T15:46:45.676Z,17.98
2023-01-23T15:49:24.938Z,16.95
2023-01-23T15:51:55.176Z,17.60
2023-01-23T15:54:39.205Z,19.02
2023-01-23T15:57:08.189Z,22.23
2023-01-23T15:59:36.678Z,22.48
2023-01-23T16:02:12.861Z,15.77
2023-01-23T16:04:44.804Z,20.00
2023-01-23T16:07:22.013Z,15.23
2023-01-23T16:09:50.663Z,17.17
2023-01-23T16:12:21.265Z,21.00
2023-01-23T16:14:49.183Z,17.75
2023-01-23T16:17:18.073Z,16.42
2023-01-23T16:19:45.685Z,19.98
2023-01-23T16:22:18.215Z,17.42
2023-01-23T16:24:45.522Z,17.45
2023-01-23T16:27:21.481Z,17.08
2023-01-23T16:29:50.664Z,9.85
2023-01-23T16:32:17.690Z,15.80
2023-01-23T16:34:44.964Z,13.93
2023-01-23T16:37:17.996Z,13.40
2023-01-23T16:39:46.894Z,14.90
2023-01-23T16:42:25.163Z,8.55
2023-01-23T16:44:52.330Z,9.23
2023-01-23T16:47:19.517Z,13.27
2023-01-23T16:49:54.431Z,14.13
2023-01-23T16:52:25.334Z,12.82
2023-01-23T16:54:54.066Z,12.50
2023-01-23T16:57:21.644Z,14.88
2023-01-23T16:59:50.182Z,15.00
2023-01-23T17:02:22.112Z,11.18
2023-01-23T17:04:49.572Z,12.43
2023-01-23T17:07:19.014Z,10.85
2023-01-23T17:09:47.715Z,14.02
2023-01-23T17:12:21.598Z,11.65
2023-01-23T17:14:50.309Z,12.48
2023-01-23T17:17:25.606Z,11.73
2023-01-23T17:19:53.173Z,37.70
2023-01-23T17:22:30.698Z,17.30
2023-01-23T17:24:57.777Z,10.73
2023-01-23T17:27:24.968Z,13.32
2023-01-23T17:29:52.013Z,15.05
2023-01-23T17:32:35.975Z,12.18
2023-01-23T17:35:06.903Z,12.80
2023-01-23T17:37:35.379Z,10.85
2023-01-23T17:40:02.741Z,10.43
2023-01-23T17:42:30.161Z,11.85
2023-01-23T17:44:57.312Z,10.10
2023-01-23T17:47:24.457Z,20.27
2023-01-23T17:49:54.918Z,24.95
2023-01-23T17:52:22.148Z,16.40
2023-01-23T17:54:49.729Z,19.30
2023-01-23T17:57:16.986Z,13.90
2023-01-23T17:59:44.449Z,6.97
2023-01-23T18:02:26.288Z,15.07
2023-01-23T18:04:53.587Z,8.07
2023-01-23T18:07:22.032Z,11.38
2023-01-23T18:09:49.070Z,10.07
2023-01-23T18:12:27.454Z,12.10
2023-01-23T18:15:10.288Z,11.45
2023-01-23T18:17:55.383Z,11.57
2023-01-23T18:20:23.896Z,11.48
2023-01-23T18:22:51.661Z,12.20
2023-01-23T18:25:20.167Z,11.48
2023-01-23T18:27:53.413Z,13.25
2023-01-23T18:30:33.931Z,9.25
2023-01-23T18:33:10.473Z,17.65
2023-01-23T18:35:37.491Z,8.80
2023-01-23T18:38:19.413Z,14.43
2023-01-23T18:41:27.632Z,8.32
2023-01-23T18:44:01.921Z,10.35
2023-01-23T18:46:30.153Z,20.05
2023-01-23T18:48:57.446Z,12.90
2023-01-23T18:51:32.009Z,12.75
2023-01-23T18:54:12.036Z,6.65
2023-01-23T18:57:02.013Z,13.95
2023-01-23T18:59:44.519Z,16.38
2023-01-23T19:02:53.225Z,11.95
2023-01-23T19:05:35.381Z,13.50
2023-01-23T19:08:03.352Z,12.23
2023-01-23T19:10:48.131Z,15.85
2023-01-23T19:13:42.890Z,10.95
2023-01-23T19:16:31.652Z,12.82
2023-01-23T19:19:15.747Z,11.65
2023-01-23T19:21:46.232Z,10.40
2023-01-23T19:24:18.291Z,11.38
2023-01-23T19:26:45.939Z,9.65
2023-01-23T19:29:23.047Z,12.77
2023-01-23T19:32:06.903Z,16.58
2023-01-23T19:34:35.797Z,13.32
2023-01-23T19:37:03.815Z,10.73
2023-01-23T19:39:30.996Z,18.15
2023-01-23T19:41:58.770Z,10.23
2023-01-23T19:44:29.044Z,18.38
2023-01-23T19:46:56.357Z,16.60
2023-01-23T19:49:23.374Z,17.27
2023-01-23T19:51:50.544Z,12.80
2023-01-23T19:54:17.632Z,10.68
2023-01-23T19:56:44.740Z,12.00
2023-01-23T19:59:14.144Z,10.32
2023-01-23T20:01:46.693Z,14.50
2023-01-23T20:04:20.836Z,11.93
2023-01-23T20:06:52.959Z,11.07
2023-01-23T20:09:21.726Z,15.73
2023-01-23T20:11:49.288Z,10.77
2023-01-23T20:14:16.589Z,8.18
2023-01-23T20:16:43.903Z,12.98
2023-01-23T20:19:14.533Z,9.05
2023-01-23T20:21:45.944Z,12.15
2023-01-23T20:24:15.284Z,13.57
2023-01-23T20:26:43.610Z,10.50
2023-01-23T20:29:12.176Z,10.88
2023-01-23T20:31:39.332Z,7.05
2023-01-23T20:34:07.353Z,7.38
2023-01-23T20:36:34.852Z,7.60
2023-01-23T20:39:02.162Z,8.60
2023-01-23T20:41:29.277Z,8.93
2023-01-23T20:43:56.410Z,11.35
2023-01-23T20:46:23.570Z,15.77
2023-01-23T20:48:50.566Z,10.63
2023-01-23T20:51:17.782Z,8.75
2023-01-23T20:53:45.532Z,7.82
2023-01-23T20:56:19.023Z,9.32
2023-01-23T20:59:08.542Z,7.85
2023-01-23T21:01:56.695Z,8.60
2023-01-23T21:04:26.257Z,7.38
2023-01-23T21:06:53.366Z,10.25
2023-01-23T21:09:20.503Z,9.02
2023-01-23T21:11:50.020Z,8.57
2023-01-23T21:14:17.951Z,6.45
2023-01-23T21:16:45.283Z,9.02
2023-01-23T21:19:12.335Z,7.30
2023-01-23T21:21:39.559Z,7.53
2023-01-23T21:24:07.636Z,7.28
2023-01-23T21:26:37.666Z,6.57
2023-01-23T21:29:05.595Z,9.15
2023-01-23T21:31:35.739Z,8.43
2023-01-23T21:34:05.158Z,8.65
2023-01-23T21:36:32.423Z,8.07
2023-01-23T21:39:02.602Z,7.07
2023-01-23T21:41:29.944Z,5.10
2023-01-23T21:43:58.241Z,5.55
2023-01-23T21:46:25.679Z,6.85
2023-01-23T21:48:52.808Z,6.72
2023-01-23T21:51:22.106Z,5.93
2023-01-23T21:53:50.286Z,5.93
2023-01-23T21:56:20.512Z,6.28
2023-01-23T21:58:48.985Z,6.97
2023-01-23T22:01:32.699Z,6.97
2023-01-23T22:04:24.119Z,7.38
2023-01-23T22:06:55.447Z,7.63
2023-01-23T22:09:25.004Z,7.93
2023-01-23T22:11:52.508Z,8.23
2023-01-23T22:14:19.792Z,7.57
2023-01-23T22:16:49.479Z,8.00
2023-01-23T22:19:24.989Z,8.43
2023-01-23T22:21:57.317Z,7.70
2023-01-23T22:24:24.725Z,7.47
2023-01-23T22:26:52.349Z,9.90
2023-01-23T22:29:19.659Z,12.45
2023-01-23T22:31:47.084Z,7.75
2023-01-23T22:34:14.227Z,8.13
2023-01-23T22:36:41.378Z,11.60
2023-01-23T22:39:08.403Z,10.90
2023-01-23T22:41:36.278Z,10.45
2023-01-23T22:44:03.315Z,9.13
2023-01-23T22:46:32.279Z,8.13
2023-01-23T22:48:59.571Z,10.45
2023-01-23T22:51:28.287Z,9.43
2023-01-23T22:53:56.655Z,7.78
2023-01-23T22:56:25.313Z,5.95
2023-01-23T22:58:54.541Z,9.07
2023-01-23T23:01:27.377Z,9.40
2023-01-23T23:03:57.305Z,7.22
2023-01-23T23:06:25.518Z,10.73
2023-01-23T23:08:52.833Z,8.85
2023-01-23T23:11:22.868Z,9.75
2023-01-23T23:13:51.030Z,8.93
2023-01-23T23:16:22.176Z,10.30
2023-01-23T23:18:52.245Z,9.38
2023-01-23T23:21:23.448Z,9.82
2023-01-23T23:23:51.373Z,9.13
2023-01-23T23:26:18.756Z,9.38
2023-01-23T23:28:45.891Z,19.38
2023-01-23T23:31:12.916Z,23.90
2023-01-23T23:33:39.928Z,67.38
2023-01-23T23:36:07.898Z,62.50
2023-01-23T23:38:35.440Z,32.10
2023-01-23T23:41:07.956Z,23.50
2023-01-23T23:43:35.454Z,78.43
2023-01-23T23:46:05.136Z,95.28
2023-01-23T23:48:33.593Z,79.68
2023-01-23T23:51:02.736Z,52.25
2023-01-23T23:53:30.908Z,18.08
2023-01-23T23:55:57.973Z,16.45
2023-01-23T23:58:25.203Z,11.70
